sensor_id;sensor_type;location;lat;lon;timestamp;P1;durP1;ratioP1;P2;durP2;ratioP2
61373;SDS011;47242;48.158;-1.586;2023-08-20T04:31:51;0.00;;;0.00;;
61373;SDS011;47242;48.158;-1.586;2023-08-20T04:34:16;0.10;;;0.10;;
61373;SDS011;47242;48.158;-1.586;2023-08-20T04:36:42;0.00;;;0.00;;
61373;SDS011;47242;48.158;-1.586;2023-08-20T04:39:08;0.10;;;0.10;;
61373;SDS011;47242;48.158;-1.586;2023-08-20T04:41:33;0.15;;;0.05;;
61373;SDS011;47242;48.158;-1.586;2023-08-20T04:43:59;0.05;;;0.05;;
61373;SDS011;47242;48.158;-1.586;2023-08-20T04:46:24;0.10;;;0.10;;
61373;SDS011;47242;48.158;-1.586;2023-08-20T04:48:50;0.00;;;0.00;;
61373;SDS011;47242;48.158;-1.586;2023-08-20T04:51:15;0.00;;;0.00;;
61373;SDS011;47242;48.158;-1.586;2023-08-20T04:53:41;0.10;;;0.10;;
61373;SDS011;47242;48.158;-1.586;2023-08-20T04:56:07;0.10;;;0.10;;
61373;SDS011;47242;48.158;-1.586;2023-08-20T04:58:32;0.00;;;0.00;;
61373;SDS011;47242;48.158;-1.586;2023-08-20T05:00:58;0.00;;;0.00;;
61373;SDS011;47242;48.158;-1.586;2023-08-20T05:03:23;0.10;;;0.10;;
61373;SDS011;47242;48.158;-1.586;2023-08-20T05:05:50;0.10;;;0.10;;
61373;SDS011;47242;48.158;-1.586;2023-08-20T05:08:16;0.10;;;0.10;;
61373;SDS011;47242;48.158;-1.586;2023-08-20T05:10:42;0.00;;;0.00;;
61373;SDS011;47242;48.158;-1.586;2023-08-20T05:13:08;0.10;;;0.10;;
61373;SDS011;47242;48.158;-1.586;2023-08-20T05:15:34;0.10;;;0.10;;
61373;SDS011;47242;48.158;-1.586;2023-08-20T05:17:59;0.00;;;0.00;;
61373;SDS011;47242;48.158;-1.586;2023-08-20T05:20:25;0.05;;;0.05;;
61373;SDS011;47242;48.158;-1.586;2023-08-20T05:22:50;0.10;;;0.10;;
61373;SDS011;47242;48.158;-1.586;2023-08-20T05:25:16;0.05;;;0.05;;
61373;SDS011;47242;48.158;-1.586;2023-08-20T05:27:42;0.00;;;0.00;;
61373;SDS011;47242;48.158;-1.586;2023-08-20T05:30:07;0.00;;;0.00;;
61373;SDS011;47242;48.158;-1.586;2023-08-20T05:32:33;0.00;;;0.00;;
61373;SDS011;47242;48.158;-1.586;2023-08-20T05:34:59;0.20;;;0.00;;
61373;SDS011;47242;48.158;-1.586;2023-08-20T05:37:24;0.10;;;0.10;;
61373;SDS011;47242;48.158;-1.586;2023-08-20T05:39:50;0.00;;;0.00;;
61373;SDS011;47242;48.158;-1.586;2023-08-20T05:42:16;0.10;;;0.10;;
61373;SDS011;47242;48.158;-1.586;2023-08-20T05:44:42;0.10;;;0.10;;
61373;SDS011;47242;48.158;-1.586;2023-08-20T05:47:07;0.10;;;0.10;;
61373;SDS011;47242;48.158;-1.586;2023-08-20T05:49:33;0.05;;;0.05;;
61373;SDS011;47242;48.158;-1.586;2023-08-20T05:51:58;0.00;;;0.00;;
61373;SDS011;47242;48.158;-1.586;2023-08-20T05:54:24;0.10;;;0.10;;
61373;SDS011;47242;48.158;-1.586;2023-08-20T05:56:50;0.00;;;0.00;;
61373;SDS011;47242;48.158;-1.586;2023-08-20T05:59:15;0.00;;;0.00;;
61373;SDS011;47242;48.158;-1.586;2023-08-20T06:01:41;0.10;;;0.10;;
61373;SDS011;47242;48.158;-1.586;2023-08-20T06:04:08;0.00;;;0.00;;
61373;SDS011;47242;48.158;-1.586;2023-08-20T06:06:34;0.10;;;0.10;;
61373;SDS011;47242;48.158;-1.586;2023-08-20T06:09:00;0.10;;;0.10;;
61373;SDS011;47242;48.158;-1.586;2023-08-20T06:11:25;0.10;;;0.10;;
61373;SDS011;47242;48.158;-1.586;2023-08-20T06:13:51;0.10;;;0.10;;
61373;SDS011;47242;48.158;-1.586;2023-08-20T06:16:17;0.03;;;0.03;;
61373;SDS011;47242;48.158;-1.586;2023-08-20T06:18:42;0.10;;;0.10;;
61373;SDS011;47242;48.158;-1.586;2023-08-20T06:21:08;0.00;;;0.00;;
61373;SDS011;47242;48.158;-1.586;2023-08-20T06:23:33;0.20;;;0.10;;
61373;SDS011;47242;48.158;-1.586;2023-08-20T06:25:59;0.00;;;0.00;;
61373;SDS011;47242;48.158;-1.586;2023-08-20T06:28:25;0.10;;;0.10;;
61373;SDS011;47242;48.158;-1.586;2023-08-20T06:30:50;0.10;;;0.10;;
61373;SDS011;47242;48.158;-1.586;2023-08-20T06:33:16;0.05;;;0.05;;
61373;SDS011;47242;48.158;-1.586;2023-08-20T06:35:41;0.10;;;0.10;;
61373;SDS011;47242;48.158;-1.586;2023-08-20T06:38:07;0.00;;;0.00;;
61373;SDS011;47242;48.158;-1.586;2023-08-20T06:40:33;0.08;;;0.08;;
61373;SDS011;47242;48.158;-1.586;2023-08-20T06:42:59;0.00;;;0.00;;
61373;SDS011;47242;48.158;-1.586;2023-08-20T06:45:24;0.00;;;0.00;;
61373;SDS011;47242;48.158;-1.586;2023-08-20T06:47:56;0.05;;;0.05;;
61373;SDS011;47242;48.158;-1.586;2023-08-20T06:50:23;0.00;;;0.00;;
61373;SDS011;47242;48.158;-1.586;2023-08-20T06:52:48;0.10;;;0.10;;
61373;SDS011;47242;48.158;-1.586;2023-08-20T06:55:14;0.00;;;0.00;;
61373;SDS011;47242;48.158;-1.586;2023-08-20T06:57:39;0.10;;;0.10;;
61373;SDS011;47242;48.158;-1.586;2023-08-20T07:00:05;0.10;;;0.10;;
61373;SDS011;47242;48.158;-1.586;2023-08-20T07:02:31;0.10;;;0.10;;
61373;SDS011;47242;48.158;-1.586;2023-08-20T07:04:57;0.10;;;0.10;;
61373;SDS011;47242;48.158;-1.586;2023-08-20T07:07:22;0.10;;;0.10;;
61373;SDS011;47242;48.158;-1.586;2023-08-20T07:09:48;0.10;;;0.10;;
61373;SDS011;47242;48.158;-1.586;2023-08-20T07:12:14;0.10;;;0.10;;
61373;SDS011;47242;48.158;-1.586;2023-08-20T07:14:39;0.10;;;0.10;;
61373;SDS011;47242;48.158;-1.586;2023-08-20T07:17:05;0.10;;;0.10;;
61373;SDS011;47242;48.158;-1.586;2023-08-20T07:19:30;0.10;;;0.10;;
61373;SDS011;47242;48.158;-1.586;2023-08-20T07:21:56;0.10;;;0.10;;
61373;SDS011;47242;48.158;-1.586;2023-08-20T07:24:22;0.10;;;0.10;;
61373;SDS011;47242;48.158;-1.586;2023-08-20T07:26:50;0.00;;;0.00;;
61373;SDS011;47242;48.158;-1.586;2023-08-20T07:29:25;0.10;;;0.10;;
61373;SDS011;47242;48.158;-1.586;2023-08-20T07:31:51;0.10;;;0.10;;
61373;SDS011;47242;48.158;-1.586;2023-08-20T07:34:17;0.20;;;0.10;;
61373;SDS011;47242;48.158;-1.586;2023-08-20T07:36:43;0.10;;;0.10;;
61373;SDS011;47242;48.158;-1.586;2023-08-20T07:39:09;0.03;;;0.03;;
61373;SDS011;47242;48.158;-1.586;2023-08-20T07:41:34;0.10;;;0.10;;
61373;SDS011;47242;48.158;-1.586;2023-08-20T07:44:00;0.10;;;0.10;;
61373;SDS011;47242;48.158;-1.586;2023-08-20T07:46:26;0.20;;;0.20;;
61373;SDS011;47242;48.158;-1.586;2023-08-20T07:48:51;0.10;;;0.10;;
61373;SDS011;47242;48.158;-1.586;2023-08-20T07:51:17;0.10;;;0.10;;
61373;SDS011;47242;48.158;-1.586;2023-08-20T07:53:42;0.10;;;0.10;;
61373;SDS011;47242;48.158;-1.586;2023-08-20T07:56:08;0.10;;;0.10;;
61373;SDS011;47242;48.158;-1.586;2023-08-20T07:58:34;0.05;;;0.05;;
61373;SDS011;47242;48.158;-1.586;2023-08-20T08:01:00;0.10;;;0.10;;
61373;SDS011;47242;48.158;-1.586;2023-08-20T08:03:25;0.10;;;0.10;;
61373;SDS011;47242;48.158;-1.586;2023-08-20T08:05:51;0.10;;;0.10;;
61373;SDS011;47242;48.158;-1.586;2023-08-20T08:08:19;0.10;;;0.10;;
61373;SDS011;47242;48.158;-1.586;2023-08-20T08:10:45;0.10;;;0.10;;
61373;SDS011;47242;48.158;-1.586;2023-08-20T08:13:12;0.20;;;0.20;;
61373;SDS011;47242;48.158;-1.586;2023-08-20T08:15:38;0.40;;;0.40;;
61373;SDS011;47242;48.158;-1.586;2023-08-20T08:18:04;0.40;;;0.40;;
61373;SDS011;47242;48.158;-1.586;2023-08-20T08:20:30;0.40;;;0.40;;
61373;SDS011;47242;48.158;-1.586;2023-08-20T08:22:55;0.40;;;0.40;;
61373;SDS011;47242;48.158;-1.586;2023-08-20T08:25:21;0.30;;;0.30;;
61373;SDS011;47242;48.158;-1.586;2023-08-20T08:27:47;0.40;;;0.40;;
61373;SDS011;47242;48.158;-1.586;2023-08-20T08:30:13;0.20;;;0.20;;
61373;SDS011;47242;48.158;-1.586;2023-08-20T08:32:39;0.10;;;0.10;;
61373;SDS011;47242;48.158;-1.586;2023-08-20T08:35:05;0.10;;;0.10;;
61373;SDS011;47242;48.158;-1.586;2023-08-20T08:37:31;0.00;;;0.00;;
61373;SDS011;47242;48.158;-1.586;2023-08-20T08:39:57;0.00;;;0.00;;
61373;SDS011;47242;48.158;-1.586;2023-08-20T08:42:22;0.10;;;0.10;;
61373;SDS011;47242;48.158;-1.586;2023-08-20T08:44:49;0.30;;;0.30;;
61373;SDS011;47242;48.158;-1.586;2023-08-20T08:47:16;0.50;;;0.50;;
61373;SDS011;47242;48.158;-1.586;2023-08-20T08:49:43;0.50;;;0.50;;
61373;SDS011;47242;48.158;-1.586;2023-08-20T08:52:11;0.50;;;0.50;;
61373;SDS011;47242;48.158;-1.586;2023-08-20T08:54:37;0.40;;;0.40;;
61373;SDS011;47242;48.158;-1.586;2023-08-20T08:57:03;0.10;;;0.10;;
61373;SDS011;47242;48.158;-1.586;2023-08-20T08:59:30;0.00;;;0.00;;
61373;SDS011;47242;48.158;-1.586;2023-08-20T09:01:56;0.05;;;0.05;;
61373;SDS011;47242;48.158;-1.586;2023-08-20T09:04:24;0.20;;;0.20;;
61373;SDS011;47242;48.158;-1.586;2023-08-20T09:06:51;0.20;;;0.20;;
61373;SDS011;47242;48.158;-1.586;2023-08-20T09:09:18;0.20;;;0.20;;
61373;SDS011;47242;48.158;-1.586;2023-08-20T09:11:46;0.10;;;0.10;;
61373;SDS011;47242;48.158;-1.586;2023-08-20T09:14:21;0.08;;;0.08;;
61373;SDS011;47242;48.158;-1.586;2023-08-20T09:16:54;0.00;;;0.00;;
61373;SDS011;47242;48.158;-1.586;2023-08-20T09:19:24;0.00;;;0.00;;
61373;SDS011;47242;48.158;-1.586;2023-08-20T09:21:55;0.10;;;0.10;;
61373;SDS011;47242;48.158;-1.586;2023-08-20T09:27:09;0.50;;;0.50;;
61373;SDS011;47242;48.158;-1.586;2023-08-20T09:29:43;0.50;;;0.50;;
61373;SDS011;47242;48.158;-1.586;2023-08-20T09:32:14;0.60;;;0.60;;
61373;SDS011;47242;48.158;-1.586;2023-08-20T09:34:40;0.40;;;0.40;;
61373;SDS011;47242;48.158;-1.586;2023-08-20T09:37:10;0.10;;;0.10;;
61373;SDS011;47242;48.158;-1.586;2023-08-20T09:39:37;0.00;;;0.00;;
61373;SDS011;47242;48.158;-1.586;2023-08-20T09:42:06;0.00;;;0.00;;
61373;SDS011;47242;48.158;-1.586;2023-08-20T09:44:33;0.10;;;0.10;;
61373;SDS011;47242;48.158;-1.586;2023-08-20T09:47:01;0.20;;;0.20;;
61373;SDS011;47242;48.158;-1.586;2023-08-20T09:49:29;0.00;;;0.00;;
61373;SDS011;47242;48.158;-1.586;2023-08-20T09:51:58;0.00;;;0.00;;
61373;SDS011;47242;48.158;-1.586;2023-08-20T09:57:04;0.00;;;0.00;;
61373;SDS011;47242;48.158;-1.586;2023-08-20T09:59:36;0.00;;;0.00;;
61373;SDS011;47242;48.158;-1.586;2023-08-20T10:02:03;0.00;;;0.00;;
61373;SDS011;47242;48.158;-1.586;2023-08-20T10:04:29;0.00;;;0.00;;
61373;SDS011;47242;48.158;-1.586;2023-08-20T10:06:55;0.05;;;0.05;;
61373;SDS011;47242;48.158;-1.586;2023-08-20T10:09:23;0.08;;;0.08;;
61373;SDS011;47242;48.158;-1.586;2023-08-20T10:11:49;0.00;;;0.00;;
61373;SDS011;47242;48.158;-1.586;2023-08-20T10:14:15;0.10;;;0.10;;
61373;SDS011;47242;48.158;-1.586;2023-08-20T10:16:41;0.00;;;0.00;;
61373;SDS011;47242;48.158;-1.586;2023-08-20T10:19:07;0.00;;;0.00;;
61373;SDS011;47242;48.158;-1.586;2023-08-20T10:21:32;0.30;;;0.30;;
61373;SDS011;47242;48.158;-1.586;2023-08-20T10:24:03;0.50;;;0.50;;
61373;SDS011;47242;48.158;-1.586;2023-08-20T10:26:30;0.10;;;0.10;;
61373;SDS011;47242;48.158;-1.586;2023-08-20T10:32:10;0.00;;;0.00;;
61373;SDS011;47242;48.158;-1.586;2023-08-20T10:34:37;0.00;;;0.00;;
61373;SDS011;47242;48.158;-1.586;2023-08-20T10:37:26;0.00;;;0.00;;
61373;SDS011;47242;48.158;-1.586;2023-08-20T10:39:53;0.08;;;0.08;;
61373;SDS011;47242;48.158;-1.586;2023-08-20T10:44:56;0.00;;;0.00;;
61373;SDS011;47242;48.158;-1.586;2023-08-20T10:47:34;0.05;;;0.05;;
61373;SDS011;47242;48.158;-1.586;2023-08-20T10:50:07;0.00;;;0.00;;
61373;SDS011;47242;48.158;-1.586;2023-08-20T10:52:39;0.10;;;0.10;;
61373;SDS011;47242;48.158;-1.586;2023-08-20T10:55:06;0.08;;;0.08;;
61373;SDS011;47242;48.158;-1.586;2023-08-20T10:57:34;0.00;;;0.00;;
61373;SDS011;47242;48.158;-1.586;2023-08-20T11:00:02;0.00;;;0.00;;
61373;SDS011;47242;48.158;-1.586;2023-08-20T11:02:34;0.05;;;0.05;;
61373;SDS011;47242;48.158;-1.586;2023-08-20T11:05:01;0.10;;;0.10;;
61373;SDS011;47242;48.158;-1.586;2023-08-20T11:07:29;0.00;;;0.00;;
61373;SDS011;47242;48.158;-1.586;2023-08-20T11:09:57;0.00;;;0.00;;
61373;SDS011;47242;48.158;-1.586;2023-08-20T11:12:22;0.05;;;0.05;;
61373;SDS011;47242;48.158;-1.586;2023-08-20T11:14:48;0.10;;;0.10;;
61373;SDS011;47242;48.158;-1.586;2023-08-20T11:17:14;0.10;;;0.10;;
61373;SDS011;47242;48.158;-1.586;2023-08-20T11:19:40;0.00;;;0.00;;
61373;SDS011;47242;48.158;-1.586;2023-08-20T11:22:05;0.00;;;0.00;;
61373;SDS011;47242;48.158;-1.586;2023-08-20T11:24:31;0.10;;;0.10;;
61373;SDS011;47242;48.158;-1.586;2023-08-20T11:26:57;0.00;;;0.00;;
61373;SDS011;47242;48.158;-1.586;2023-08-20T11:29:24;0.00;;;0.00;;
61373;SDS011;47242;48.158;-1.586;2023-08-20T11:31:51;0.00;;;0.00;;
61373;SDS011;47242;48.158;-1.586;2023-08-20T11:34:18;0.10;;;0.10;;
61373;SDS011;47242;48.158;-1.586;2023-08-20T11:36:43;0.00;;;0.00;;
61373;SDS011;47242;48.158;-1.586;2023-08-20T11:39:09;0.00;;;0.00;;
61373;SDS011;47242;48.158;-1.586;2023-08-20T11:41:35;0.00;;;0.00;;
61373;SDS011;47242;48.158;-1.586;2023-08-20T11:44:02;0.00;;;0.00;;
61373;SDS011;47242;48.158;-1.586;2023-08-20T11:46:30;0.00;;;0.00;;
61373;SDS011;47242;48.158;-1.586;2023-08-20T11:49:03;0.10;;;0.10;;
61373;SDS011;47242;48.158;-1.586;2023-08-20T11:51:36;0.00;;;0.00;;
61373;SDS011;47242;48.158;-1.586;2023-08-20T11:54:05;0.05;;;0.05;;
61373;SDS011;47242;48.158;-1.586;2023-08-20T11:56:33;0.00;;;0.00;;
61373;SDS011;47242;48.158;-1.586;2023-08-20T11:59:00;0.10;;;0.10;;
61373;SDS011;47242;48.158;-1.586;2023-08-20T12:01:29;0.00;;;0.00;;
61373;SDS011;47242;48.158;-1.586;2023-08-20T12:04:05;0.00;;;0.00;;
61373;SDS011;47242;48.158;-1.586;2023-08-20T12:06:32;0.10;;;0.10;;
61373;SDS011;47242;48.158;-1.586;2023-08-20T12:09:00;0.00;;;0.00;;
61373;SDS011;47242;48.158;-1.586;2023-08-20T12:11:29;0.10;;;0.10;;
61373;SDS011;47242;48.158;-1.586;2023-08-20T12:13:56;0.10;;;0.10;;
61373;SDS011;47242;48.158;-1.586;2023-08-20T12:16:22;0.10;;;0.10;;
61373;SDS011;47242;48.158;-1.586;2023-08-20T12:18:51;0.00;;;0.00;;
61373;SDS011;47242;48.158;-1.586;2023-08-20T12:21:20;0.10;;;0.10;;
61373;SDS011;47242;48.158;-1.586;2023-08-20T12:23:46;0.10;;;0.10;;
61373;SDS011;47242;48.158;-1.586;2023-08-20T12:26:12;0.08;;;0.08;;
61373;SDS011;47242;48.158;-1.586;2023-08-20T12:28:37;0.10;;;0.10;;
61373;SDS011;47242;48.158;-1.586;2023-08-20T12:31:03;0.00;;;0.00;;
61373;SDS011;47242;48.158;-1.586;2023-08-20T12:33:28;0.00;;;0.00;;
61373;SDS011;47242;48.158;-1.586;2023-08-20T12:35:55;0.00;;;0.00;;
61373;SDS011;47242;48.158;-1.586;2023-08-20T12:38:20;0.00;;;0.00;;
61373;SDS011;47242;48.158;-1.586;2023-08-20T12:40:47;0.00;;;0.00;;
61373;SDS011;47242;48.158;-1.586;2023-08-20T12:43:12;0.00;;;0.00;;
61373;SDS011;47242;48.158;-1.586;2023-08-20T12:45:38;0.00;;;0.00;;
61373;SDS011;47242;48.158;-1.586;2023-08-20T12:48:04;0.10;;;0.10;;
61373;SDS011;47242;48.158;-1.586;2023-08-20T12:50:30;0.08;;;0.08;;
61373;SDS011;47242;48.158;-1.586;2023-08-20T12:52:56;0.00;;;0.00;;
61373;SDS011;47242;48.158;-1.586;2023-08-20T12:55:21;0.00;;;0.00;;
61373;SDS011;47242;48.158;-1.586;2023-08-20T12:57:55;0.10;;;0.10;;
61373;SDS011;47242;48.158;-1.586;2023-08-20T13:00:23;0.00;;;0.00;;
61373;SDS011;47242;48.158;-1.586;2023-08-20T13:02:55;0.00;;;0.00;;
61373;SDS011;47242;48.158;-1.586;2023-08-20T13:05:22;0.00;;;0.00;;
61373;SDS011;47242;48.158;-1.586;2023-08-20T13:07:49;0.10;;;0.10;;
61373;SDS011;47242;48.158;-1.586;2023-08-20T13:10:15;0.10;;;0.10;;
61373;SDS011;47242;48.158;-1.586;2023-08-20T13:12:41;0.10;;;0.10;;
61373;SDS011;47242;48.158;-1.586;2023-08-20T13:15:10;0.10;;;0.10;;
61373;SDS011;47242;48.158;-1.586;2023-08-20T13:17:36;0.10;;;0.10;;
61373;SDS011;47242;48.158;-1.586;2023-08-20T13:20:02;0.10;;;0.10;;
61373;SDS011;47242;48.158;-1.586;2023-08-20T13:22:30;0.00;;;0.00;;
61373;SDS011;47242;48.158;-1.586;2023-08-20T13:24:55;0.03;;;0.03;;
61373;SDS011;47242;48.158;-1.586;2023-08-20T13:27:21;0.00;;;0.00;;
61373;SDS011;47242;48.158;-1.586;2023-08-20T13:29:47;0.10;;;0.10;;
61373;SDS011;47242;48.158;-1.586;2023-08-20T13:32:12;0.10;;;0.10;;
61373;SDS011;47242;48.158;-1.586;2023-08-20T13:34:38;0.10;;;0.10;;
61373;SDS011;47242;48.158;-1.586;2023-08-20T13:37:03;0.10;;;0.10;;
61373;SDS011;47242;48.158;-1.586;2023-08-20T13:39:29;0.10;;;0.10;;
61373;SDS011;47242;48.158;-1.586;2023-08-20T13:41:55;0.10;;;0.10;;
61373;SDS011;47242;48.158;-1.586;2023-08-20T13:44:20;0.00;;;0.00;;
61373;SDS011;47242;48.158;-1.586;2023-08-20T13:46:46;0.00;;;0.00;;
61373;SDS011;47242;48.158;-1.586;2023-08-20T13:49:12;0.10;;;0.10;;
61373;SDS011;47242;48.158;-1.586;2023-08-20T13:51:37;0.00;;;0.00;;
61373;SDS011;47242;48.158;-1.586;2023-08-20T13:54:03;0.10;;;0.10;;
61373;SDS011;47242;48.158;-1.586;2023-08-20T13:56:29;0.00;;;0.00;;
61373;SDS011;47242;48.158;-1.586;2023-08-20T13:58:55;0.00;;;0.00;;
61373;SDS011;47242;48.158;-1.586;2023-08-20T14:01:20;0.00;;;0.00;;
61373;SDS011;47242;48.158;-1.586;2023-08-20T14:03:46;0.00;;;0.00;;
61373;SDS011;47242;48.158;-1.586;2023-08-20T14:06:12;0.00;;;0.00;;
61373;SDS011;47242;48.158;-1.586;2023-08-20T14:08:37;0.00;;;0.00;;
61373;SDS011;47242;48.158;-1.586;2023-08-20T14:11:03;0.00;;;0.00;;
61373;SDS011;47242;48.158;-1.586;2023-08-20T14:13:28;0.00;;;0.00;;
61373;SDS011;47242;48.158;-1.586;2023-08-20T14:15:54;0.00;;;0.00;;
61373;SDS011;47242;48.158;-1.586;2023-08-20T14:18:20;0.10;;;0.10;;
61373;SDS011;47242;48.158;-1.586;2023-08-20T14:20:46;0.00;;;0.00;;
61373;SDS011;47242;48.158;-1.586;2023-08-20T14:23:11;0.00;;;0.00;;
61373;SDS011;47242;48.158;-1.586;2023-08-20T14:25:37;0.00;;;0.00;;
61373;SDS011;47242;48.158;-1.586;2023-08-20T14:28:05;0.00;;;0.00;;
61373;SDS011;47242;48.158;-1.586;2023-08-20T14:30:31;0.10;;;0.10;;
61373;SDS011;47242;48.158;-1.586;2023-08-20T14:33:00;0.00;;;0.00;;
61373;SDS011;47242;48.158;-1.586;2023-08-20T14:35:26;0.10;;;0.10;;
61373;SDS011;47242;48.158;-1.586;2023-08-20T14:37:53;0.00;;;0.00;;
61373;SDS011;47242;48.158;-1.586;2023-08-20T14:40:19;0.00;;;0.00;;
61373;SDS011;47242;48.158;-1.586;2023-08-20T14:42:44;0.00;;;0.00;;
61373;SDS011;47242;48.158;-1.586;2023-08-20T14:45:10;0.00;;;0.00;;
61373;SDS011;47242;48.158;-1.586;2023-08-20T14:47:36;0.00;;;0.00;;
61373;SDS011;47242;48.158;-1.586;2023-08-20T14:50:02;0.08;;;0.08;;
61373;SDS011;47242;48.158;-1.586;2023-08-20T14:52:28;0.00;;;0.00;;
61373;SDS011;47242;48.158;-1.586;2023-08-20T14:54:53;0.10;;;0.10;;
61373;SDS011;47242;48.158;-1.586;2023-08-20T14:57:19;0.00;;;0.00;;
61373;SDS011;47242;48.158;-1.586;2023-08-20T14:59:45;0.00;;;0.00;;
61373;SDS011;47242;48.158;-1.586;2023-08-20T15:02:10;0.00;;;0.00;;
61373;SDS011;47242;48.158;-1.586;2023-08-20T15:04:36;0.00;;;0.00;;
61373;SDS011;47242;48.158;-1.586;2023-08-20T15:07:01;0.00;;;0.00;;
61373;SDS011;47242;48.158;-1.586;2023-08-20T15:09:28;0.00;;;0.00;;
61373;SDS011;47242;48.158;-1.586;2023-08-20T15:11:54;0.00;;;0.00;;
61373;SDS011;47242;48.158;-1.586;2023-08-20T15:14:21;0.00;;;0.00;;
61373;SDS011;47242;48.158;-1.586;2023-08-20T15:16:47;0.10;;;0.10;;
61373;SDS011;47242;48.158;-1.586;2023-08-20T15:19:13;0.00;;;0.00;;
61373;SDS011;47242;48.158;-1.586;2023-08-20T15:21:38;0.08;;;0.08;;
61373;SDS011;47242;48.158;-1.586;2023-08-20T15:24:04;0.00;;;0.00;;
61373;SDS011;47242;48.158;-1.586;2023-08-20T15:26:30;0.00;;;0.00;;
61373;SDS011;47242;48.158;-1.586;2023-08-20T15:28:55;0.08;;;0.08;;
61373;SDS011;47242;48.158;-1.586;2023-08-20T15:31:21;0.00;;;0.00;;
61373;SDS011;47242;48.158;-1.586;2023-08-20T15:33:47;0.00;;;0.00;;
61373;SDS011;47242;48.158;-1.586;2023-08-20T15:36:12;0.10;;;0.10;;
61373;SDS011;47242;48.158;-1.586;2023-08-20T15:38:38;0.00;;;0.00;;
61373;SDS011;47242;48.158;-1.586;2023-08-20T15:41:03;0.05;;;0.05;;
61373;SDS011;47242;48.158;-1.586;2023-08-20T15:43:29;0.10;;;0.10;;
61373;SDS011;47242;48.158;-1.586;2023-08-20T15:45:55;0.00;;;0.00;;
61373;SDS011;47242;48.158;-1.586;2023-08-20T15:48:20;0.00;;;0.00;;
61373;SDS011;47242;48.158;-1.586;2023-08-20T15:50:46;0.00;;;0.00;;
61373;SDS011;47242;48.158;-1.586;2023-08-20T15:53:12;0.03;;;0.03;;
61373;SDS011;47242;48.158;-1.586;2023-08-20T15:55:37;0.10;;;0.10;;
61373;SDS011;47242;48.158;-1.586;2023-08-20T15:58:03;0.00;;;0.00;;
61373;SDS011;47242;48.158;-1.586;2023-08-20T16:00:29;0.00;;;0.00;;
61373;SDS011;47242;48.158;-1.586;2023-08-20T16:02:55;0.00;;;0.00;;
61373;SDS011;47242;48.158;-1.586;2023-08-20T16:05:21;0.00;;;0.00;;
61373;SDS011;47242;48.158;-1.586;2023-08-20T16:07:46;0.00;;;0.00;;
61373;SDS011;47242;48.158;-1.586;2023-08-20T16:10:13;0.08;;;0.08;;
61373;SDS011;47242;48.158;-1.586;2023-08-20T16:12:40;0.00;;;0.00;;
61373;SDS011;47242;48.158;-1.586;2023-08-20T16:15:05;0.00;;;0.00;;
61373;SDS011;47242;48.158;-1.586;2023-08-20T16:17:32;0.10;;;0.10;;
61373;SDS011;47242;48.158;-1.586;2023-08-20T16:19:58;0.10;;;0.10;;
61373;SDS011;47242;48.158;-1.586;2023-08-20T16:22:27;0.00;;;0.00;;
61373;SDS011;47242;48.158;-1.586;2023-08-20T16:24:55;0.00;;;0.00;;
61373;SDS011;47242;48.158;-1.586;2023-08-20T16:27:21;0.00;;;0.00;;
61373;SDS011;47242;48.158;-1.586;2023-08-20T16:29:48;0.00;;;0.00;;
61373;SDS011;47242;48.158;-1.586;2023-08-20T16:32:14;0.10;;;0.10;;
61373;SDS011;47242;48.158;-1.586;2023-08-20T16:34:40;0.00;;;0.00;;
61373;SDS011;47242;48.158;-1.586;2023-08-20T16:37:06;0.00;;;0.00;;
61373;SDS011;47242;48.158;-1.586;2023-08-20T16:39:32;0.00;;;0.00;;
61373;SDS011;47242;48.158;-1.586;2023-08-20T16:41:58;0.00;;;0.00;;
61373;SDS011;47242;48.158;-1.586;2023-08-20T16:44:24;0.10;;;0.10;;
61373;SDS011;47242;48.158;-1.586;2023-08-20T16:46:49;0.00;;;0.00;;
61373;SDS011;47242;48.158;-1.586;2023-08-20T16:49:15;0.00;;;0.00;;
61373;SDS011;47242;48.158;-1.586;2023-08-20T16:51:40;0.00;;;0.00;;
61373;SDS011;47242;48.158;-1.586;2023-08-20T16:54:06;0.00;;;0.00;;
61373;SDS011;47242;48.158;-1.586;2023-08-20T16:56:32;0.00;;;0.00;;
61373;SDS011;47242;48.158;-1.586;2023-08-20T16:58:58;0.00;;;0.00;;
61373;SDS011;47242;48.158;-1.586;2023-08-20T17:01:24;0.00;;;0.00;;
61373;SDS011;47242;48.158;-1.586;2023-08-20T17:03:49;0.00;;;0.00;;
61373;SDS011;47242;48.158;-1.586;2023-08-20T17:06:15;0.00;;;0.00;;
61373;SDS011;47242;48.158;-1.586;2023-08-20T17:08:42;0.00;;;0.00;;
61373;SDS011;47242;48.158;-1.586;2023-08-20T17:11:08;0.00;;;0.00;;
61373;SDS011;47242;48.158;-1.586;2023-08-20T17:13:35;0.00;;;0.00;;
61373;SDS011;47242;48.158;-1.586;2023-08-20T17:16:02;0.00;;;0.00;;
61373;SDS011;47242;48.158;-1.586;2023-08-20T17:18:28;0.00;;;0.00;;
61373;SDS011;47242;48.158;-1.586;2023-08-20T17:20:57;0.00;;;0.00;;
61373;SDS011;47242;48.158;-1.586;2023-08-20T17:23:24;0.00;;;0.00;;
61373;SDS011;47242;48.158;-1.586;2023-08-20T17:25:54;0.00;;;0.00;;
61373;SDS011;47242;48.158;-1.586;2023-08-20T17:28:22;0.00;;;0.00;;
61373;SDS011;47242;48.158;-1.586;2023-08-20T17:30:48;0.00;;;0.00;;
61373;SDS011;47242;48.158;-1.586;2023-08-20T17:33:15;0.00;;;0.00;;
61373;SDS011;47242;48.158;-1.586;2023-08-20T17:35:43;0.00;;;0.00;;
61373;SDS011;47242;48.158;-1.586;2023-08-20T17:38:09;0.00;;;0.00;;
61373;SDS011;47242;48.158;-1.586;2023-08-20T17:40:36;0.00;;;0.00;;
61373;SDS011;47242;48.158;-1.586;2023-08-20T17:43:05;0.00;;;0.00;;
61373;SDS011;47242;48.158;-1.586;2023-08-20T17:45:30;0.00;;;0.00;;
61373;SDS011;47242;48.158;-1.586;2023-08-20T17:47:59;0.00;;;0.00;;
61373;SDS011;47242;48.158;-1.586;2023-08-20T17:50:24;0.00;;;0.00;;
61373;SDS011;47242;48.158;-1.586;2023-08-20T17:52:50;0.00;;;0.00;;
61373;SDS011;47242;48.158;-1.586;2023-08-20T17:55:16;0.00;;;0.00;;
61373;SDS011;47242;48.158;-1.586;2023-08-20T17:57:41;0.00;;;0.00;;
61373;SDS011;47242;48.158;-1.586;2023-08-20T18:00:07;0.00;;;0.00;;
61373;SDS011;47242;48.158;-1.586;2023-08-20T18:02:34;0.00;;;0.00;;
61373;SDS011;47242;48.158;-1.586;2023-08-20T18:05:00;0.00;;;0.00;;
61373;SDS011;47242;48.158;-1.586;2023-08-20T18:07:26;0.00;;;0.00;;
61373;SDS011;47242;48.158;-1.586;2023-08-20T18:09:51;0.00;;;0.00;;
61373;SDS011;47242;48.158;-1.586;2023-08-20T18:12:17;0.00;;;0.00;;
61373;SDS011;47242;48.158;-1.586;2023-08-20T18:14:43;0.00;;;0.00;;
61373;SDS011;47242;48.158;-1.586;2023-08-20T18:17:08;0.00;;;0.00;;
61373;SDS011;47242;48.158;-1.586;2023-08-20T18:19:34;0.00;;;0.00;;
61373;SDS011;47242;48.158;-1.586;2023-08-20T18:22:00;0.00;;;0.00;;
61373;SDS011;47242;48.158;-1.586;2023-08-20T18:24:25;0.00;;;0.00;;
61373;SDS011;47242;48.158;-1.586;2023-08-20T18:26:51;0.00;;;0.00;;
61373;SDS011;47242;48.158;-1.586;2023-08-20T18:29:16;0.00;;;0.00;;
61373;SDS011;47242;48.158;-1.586;2023-08-20T18:31:42;0.00;;;0.00;;
61373;SDS011;47242;48.158;-1.586;2023-08-20T18:34:08;0.00;;;0.00;;
61373;SDS011;47242;48.158;-1.586;2023-08-20T18:36:33;0.00;;;0.00;;
61373;SDS011;47242;48.158;-1.586;2023-08-20T18:38:59;0.00;;;0.00;;
61373;SDS011;47242;48.158;-1.586;2023-08-20T18:41:29;0.00;;;0.00;;
61373;SDS011;47242;48.158;-1.586;2023-08-20T18:43:54;0.00;;;0.00;;
61373;SDS011;47242;48.158;-1.586;2023-08-20T18:46:20;0.00;;;0.00;;
61373;SDS011;47242;48.158;-1.586;2023-08-20T18:48:46;0.00;;;0.00;;
61373;SDS011;47242;48.158;-1.586;2023-08-20T18:51:11;0.00;;;0.00;;
61373;SDS011;47242;48.158;-1.586;2023-08-20T18:53:40;0.00;;;0.00;;
61373;SDS011;47242;48.158;-1.586;2023-08-20T18:56:07;0.00;;;0.00;;
61373;SDS011;47242;48.158;-1.586;2023-08-20T18:58:32;0.00;;;0.00;;
61373;SDS011;47242;48.158;-1.586;2023-08-20T19:00:58;0.00;;;0.00;;
61373;SDS011;47242;48.158;-1.586;2023-08-20T19:03:23;0.00;;;0.00;;
61373;SDS011;47242;48.158;-1.586;2023-08-20T19:05:49;0.00;;;0.00;;
61373;SDS011;47242;48.158;-1.586;2023-08-20T19:08:15;0.00;;;0.00;;
61373;SDS011;47242;48.158;-1.586;2023-08-20T19:10:43;0.00;;;0.00;;